sensor_id;sensor_type;location;lat;lon;timestamp;P1;durP1;ratioP1;P2;durP2;ratioP2
47958;SDS011;33718;50.910;-1.514;2023-07-29T00:00:32;4.78;;;2.50;;
47958;SDS011;33718;50.910;-1.514;2023-07-29T00:02:47;6.13;;;2.78;;
47958;SDS011;33718;50.910;-1.514;2023-07-29T00:04:56;15.35;;;3.55;;
47958;SDS011;33718;50.910;-1.514;2023-07-29T00:07:01;8.80;;;2.60;;
47958;SDS011;33718;50.910;-1.514;2023-07-29T00:09:16;5.95;;;2.80;;
47958;SDS011;33718;50.910;-1.514;2023-07-29T00:11:22;10.20;;;2.90;;
47958;SDS011;33718;50.910;-1.514;2023-07-29T00:13:28;12.15;;;3.72;;
47958;SDS011;33718;50.910;-1.514;2023-07-29T00:15:38;7.30;;;2.75;;
47958;SDS011;33718;50.910;-1.514;2023-07-29T00:17:49;9.80;;;2.90;;
47958;SDS011;33718;50.910;-1.514;2023-07-29T00:19:58;6.57;;;2.30;;
47958;SDS011;33718;50.910;-1.514;2023-07-29T00:22:10;7.07;;;2.67;;
47958;SDS011;33718;50.910;-1.514;2023-07-29T00:24:24;12.45;;;3.33;;
47958;SDS011;33718;50.910;-1.514;2023-07-29T00:26:34;6.80;;;2.67;;
47958;SDS011;33718;50.910;-1.514;2023-07-29T00:28:39;7.20;;;2.63;;
47958;SDS011;33718;50.910;-1.514;2023-07-29T00:30:49;8.48;;;2.88;;
47958;SDS011;33718;50.910;-1.514;2023-07-29T00:33:00;7.93;;;2.90;;
47958;SDS011;33718;50.910;-1.514;2023-07-29T00:35:14;11.43;;;3.35;;
47958;SDS011;33718;50.910;-1.514;2023-07-29T00:37:17;7.28;;;2.75;;
47958;SDS011;33718;50.910;-1.514;2023-07-29T00:39:37;7.25;;;2.88;;
47958;SDS011;33718;50.910;-1.514;2023-07-29T00:41:42;12.05;;;4.00;;
47958;SDS011;33718;50.910;-1.514;2023-07-29T00:43:46;6.57;;;3.03;;
47958;SDS011;33718;50.910;-1.514;2023-07-29T00:45:50;7.72;;;2.80;;
47958;SDS011;33718;50.910;-1.514;2023-07-29T00:47:54;9.55;;;3.80;;
47958;SDS011;33718;50.910;-1.514;2023-07-29T00:49:59;7.45;;;2.42;;
47958;SDS011;33718;50.910;-1.514;2023-07-29T00:52:07;7.60;;;2.80;;
47958;SDS011;33718;50.910;-1.514;2023-07-29T00:54:11;9.48;;;3.70;;
47958;SDS011;33718;50.910;-1.514;2023-07-29T00:56:15;14.18;;;2.88;;
47958;SDS011;33718;50.910;-1.514;2023-07-29T00:58:17;12.75;;;2.65;;
47958;SDS011;33718;50.910;-1.514;2023-07-29T01:00:22;13.07;;;4.13;;
47958;SDS011;33718;50.910;-1.514;2023-07-29T01:02:23;6.30;;;2.72;;
47958;SDS011;33718;50.910;-1.514;2023-07-29T01:04:28;10.20;;;3.03;;
47958;SDS011;33718;50.910;-1.514;2023-07-29T01:06:57;11.35;;;3.35;;
47958;SDS011;33718;50.910;-1.514;2023-07-29T01:11:03;9.85;;;2.65;;
47958;SDS011;33718;50.910;-1.514;2023-07-29T01:13:10;9.43;;;4.18;;
47958;SDS011;33718;50.910;-1.514;2023-07-29T01:17:22;8.52;;;2.85;;
47958;SDS011;33718;50.910;-1.514;2023-07-29T01:20:01;7.00;;;3.15;;
47958;SDS011;33718;50.910;-1.514;2023-07-29T01:21:57;14.68;;;3.47;;
47958;SDS011;33718;50.910;-1.514;2023-07-29T01:24:18;12.82;;;3.60;;
47958;SDS011;33718;50.910;-1.514;2023-07-29T01:26:22;7.32;;;2.65;;
47958;SDS011;33718;50.910;-1.514;2023-07-29T01:28:43;11.55;;;2.85;;
47958;SDS011;33718;50.910;-1.514;2023-07-29T01:30:44;9.02;;;2.92;;
47958;SDS011;33718;50.910;-1.514;2023-07-29T01:32:58;14.07;;;3.45;;
47958;SDS011;33718;50.910;-1.514;2023-07-29T01:37:05;9.73;;;3.63;;
47958;SDS011;33718;50.910;-1.514;2023-07-29T01:39:12;9.05;;;3.55;;
47958;SDS011;33718;50.910;-1.514;2023-07-29T01:41:18;6.95;;;2.40;;
47958;SDS011;33718;50.910;-1.514;2023-07-29T01:43:38;7.30;;;3.33;;
47958;SDS011;33718;50.910;-1.514;2023-07-29T01:45:48;4.63;;;2.83;;
47958;SDS011;33718;50.910;-1.514;2023-07-29T01:47:52;8.10;;;3.20;;
47958;SDS011;33718;50.910;-1.514;2023-07-29T01:49:54;9.80;;;3.20;;
47958;SDS011;33718;50.910;-1.514;2023-07-29T01:51:56;11.70;;;2.90;;
47958;SDS011;33718;50.910;-1.514;2023-07-29T01:54:00;12.13;;;3.00;;
47958;SDS011;33718;50.910;-1.514;2023-07-29T01:56:21;11.10;;;3.45;;
47958;SDS011;33718;50.910;-1.514;2023-07-29T01:58:23;12.60;;;3.78;;
47958;SDS011;33718;50.910;-1.514;2023-07-29T02:00:24;8.23;;;2.92;;
47958;SDS011;33718;50.910;-1.514;2023-07-29T02:02:26;10.88;;;3.40;;
47958;SDS011;33718;50.910;-1.514;2023-07-29T02:04:30;11.38;;;3.33;;
47958;SDS011;33718;50.910;-1.514;2023-07-29T02:06:35;9.35;;;2.55;;
47958;SDS011;33718;50.910;-1.514;2023-07-29T02:08:39;4.38;;;2.78;;
47958;SDS011;33718;50.910;-1.514;2023-07-29T02:10:42;6.10;;;2.65;;
47958;SDS011;33718;50.910;-1.514;2023-07-29T02:12:46;8.88;;;2.67;;
47958;SDS011;33718;50.910;-1.514;2023-07-29T02:14:51;8.13;;;2.92;;
47958;SDS011;33718;50.910;-1.514;2023-07-29T02:16:52;10.55;;;2.92;;
47958;SDS011;33718;50.910;-1.514;2023-07-29T02:18:57;14.82;;;2.58;;
47958;SDS011;33718;50.910;-1.514;2023-07-29T02:21:01;8.70;;;2.08;;
47958;SDS011;33718;50.910;-1.514;2023-07-29T02:23:02;6.07;;;2.72;;
47958;SDS011;33718;50.910;-1.514;2023-07-29T02:25:07;6.55;;;2.78;;
47958;SDS011;33718;50.910;-1.514;2023-07-29T02:27:11;9.25;;;3.35;;
47958;SDS011;33718;50.910;-1.514;2023-07-29T02:29:15;6.68;;;2.83;;
47958;SDS011;33718;50.910;-1.514;2023-07-29T02:31:20;8.70;;;2.92;;
47958;SDS011;33718;50.910;-1.514;2023-07-29T02:33:25;11.35;;;3.05;;
47958;SDS011;33718;50.910;-1.514;2023-07-29T02:35:29;8.65;;;2.85;;
47958;SDS011;33718;50.910;-1.514;2023-07-29T02:37:31;8.88;;;2.47;;
47958;SDS011;33718;50.910;-1.514;2023-07-29T02:39:32;7.25;;;2.47;;
47958;SDS011;33718;50.910;-1.514;2023-07-29T02:41:36;10.05;;;2.80;;
47958;SDS011;33718;50.910;-1.514;2023-07-29T02:43:42;6.78;;;2.50;;
47958;SDS011;33718;50.910;-1.514;2023-07-29T02:45:43;8.68;;;2.28;;
47958;SDS011;33718;50.910;-1.514;2023-07-29T02:47:48;7.30;;;2.08;;
47958;SDS011;33718;50.910;-1.514;2023-07-29T02:49:49;7.05;;;2.75;;
47958;SDS011;33718;50.910;-1.514;2023-07-29T02:51:51;7.88;;;2.15;;
47958;SDS011;33718;50.910;-1.514;2023-07-29T02:53:59;4.43;;;2.20;;
47958;SDS011;33718;50.910;-1.514;2023-07-29T02:56:01;8.32;;;2.05;;
47958;SDS011;33718;50.910;-1.514;2023-07-29T02:58:02;6.68;;;1.98;;
47958;SDS011;33718;50.910;-1.514;2023-07-29T03:00:07;5.78;;;2.35;;
47958;SDS011;33718;50.910;-1.514;2023-07-29T03:02:09;6.93;;;2.00;;
47958;SDS011;33718;50.910;-1.514;2023-07-29T03:04:29;6.90;;;2.08;;
47958;SDS011;33718;50.910;-1.514;2023-07-29T03:06:37;3.50;;;2.35;;
47958;SDS011;33718;50.910;-1.514;2023-07-29T03:13:44;8.82;;;2.35;;
47958;SDS011;33718;50.910;-1.514;2023-07-29T03:15:51;4.72;;;2.58;;
47958;SDS011;33718;50.910;-1.514;2023-07-29T03:17:57;8.88;;;2.20;;
47958;SDS011;33718;50.910;-1.514;2023-07-29T03:20:19;3.90;;;2.30;;
47958;SDS011;33718;50.910;-1.514;2023-07-29T03:22:40;3.83;;;1.98;;
47958;SDS011;33718;50.910;-1.514;2023-07-29T03:25:02;4.10;;;1.98;;
47958;SDS011;33718;50.910;-1.514;2023-07-29T03:27:08;6.82;;;2.28;;
47958;SDS011;33718;50.910;-1.514;2023-07-29T03:29:15;6.70;;;2.10;;
47958;SDS011;33718;50.910;-1.514;2023-07-29T03:31:22;10.13;;;2.72;;
47958;SDS011;33718;50.910;-1.514;2023-07-29T03:33:26;4.88;;;1.95;;
47958;SDS011;33718;50.910;-1.514;2023-07-29T03:35:35;6.60;;;2.10;;
47958;SDS011;33718;50.910;-1.514;2023-07-29T03:37:38;3.33;;;2.00;;
47958;SDS011;33718;50.910;-1.514;2023-07-29T03:39:41;7.07;;;2.22;;
47958;SDS011;33718;50.910;-1.514;2023-07-29T03:41:48;8.02;;;2.60;;
47958;SDS011;33718;50.910;-1.514;2023-07-29T03:43:51;5.35;;;2.45;;
47958;SDS011;33718;50.910;-1.514;2023-07-29T03:45:54;7.45;;;2.55;;
47958;SDS011;33718;50.910;-1.514;2023-07-29T03:47:55;6.45;;;2.28;;
47958;SDS011;33718;50.910;-1.514;2023-07-29T03:50:16;5.35;;;2.17;;
47958;SDS011;33718;50.910;-1.514;2023-07-29T03:52:20;5.32;;;1.83;;
47958;SDS011;33718;50.910;-1.514;2023-07-29T03:54:24;8.85;;;1.90;;
47958;SDS011;33718;50.910;-1.514;2023-07-29T03:56:26;6.40;;;2.50;;
47958;SDS011;33718;50.910;-1.514;2023-07-29T03:58:31;7.15;;;2.65;;
47958;SDS011;33718;50.910;-1.514;2023-07-29T04:00:32;5.07;;;2.42;;
47958;SDS011;33718;50.910;-1.514;2023-07-29T04:02:37;7.72;;;2.25;;
47958;SDS011;33718;50.910;-1.514;2023-07-29T04:04:41;6.43;;;2.25;;
47958;SDS011;33718;50.910;-1.514;2023-07-29T04:06:45;5.15;;;1.90;;
47958;SDS011;33718;50.910;-1.514;2023-07-29T04:09:05;3.38;;;2.40;;
47958;SDS011;33718;50.910;-1.514;2023-07-29T04:11:07;6.75;;;2.03;;
47958;SDS011;33718;50.910;-1.514;2023-07-29T04:13:11;4.32;;;2.30;;
47958;SDS011;33718;50.910;-1.514;2023-07-29T04:15:15;5.82;;;2.35;;
47958;SDS011;33718;50.910;-1.514;2023-07-29T04:17:20;6.82;;;2.40;;
47958;SDS011;33718;50.910;-1.514;2023-07-29T04:19:24;4.05;;;1.98;;
47958;SDS011;33718;50.910;-1.514;2023-07-29T04:21:26;4.07;;;2.63;;
47958;SDS011;33718;50.910;-1.514;2023-07-29T04:23:30;4.22;;;1.83;;
47958;SDS011;33718;50.910;-1.514;2023-07-29T04:25:35;3.65;;;2.15;;
47958;SDS011;33718;50.910;-1.514;2023-07-29T04:27:36;4.35;;;1.73;;
47958;SDS011;33718;50.910;-1.514;2023-07-29T04:29:38;5.15;;;1.65;;
47958;SDS011;33718;50.910;-1.514;2023-07-29T04:31:45;8.02;;;2.05;;
47958;SDS011;33718;50.910;-1.514;2023-07-29T04:33:47;2.67;;;1.60;;
47958;SDS011;33718;50.910;-1.514;2023-07-29T04:35:51;9.57;;;1.70;;
47958;SDS011;33718;50.910;-1.514;2023-07-29T04:37:56;2.80;;;1.80;;
47958;SDS011;33718;50.910;-1.514;2023-07-29T04:39:57;5.60;;;2.15;;
47958;SDS011;33718;50.910;-1.514;2023-07-29T04:41:59;6.38;;;2.00;;
47958;SDS011;33718;50.910;-1.514;2023-07-29T04:44:05;8.05;;;2.40;;
47958;SDS011;33718;50.910;-1.514;2023-07-29T04:46:07;7.15;;;2.08;;
47958;SDS011;33718;50.910;-1.514;2023-07-29T04:48:29;3.13;;;2.10;;
47958;SDS011;33718;50.910;-1.514;2023-07-29T04:50:31;5.22;;;1.80;;
47958;SDS011;33718;50.910;-1.514;2023-07-29T04:52:33;2.55;;;1.95;;
47958;SDS011;33718;50.910;-1.514;2023-07-29T04:54:34;5.82;;;1.60;;
47958;SDS011;33718;50.910;-1.514;2023-07-29T04:56:36;4.88;;;2.28;;
47958;SDS011;33718;50.910;-1.514;2023-07-29T04:58:37;3.35;;;2.28;;
47958;SDS011;33718;50.910;-1.514;2023-07-29T05:00:39;6.20;;;3.50;;
47958;SDS011;33718;50.910;-1.514;2023-07-29T05:02:40;5.78;;;2.22;;
47958;SDS011;33718;50.910;-1.514;2023-07-29T05:04:45;6.93;;;2.00;;
47958;SDS011;33718;50.910;-1.514;2023-07-29T05:06:47;6.18;;;2.40;;
47958;SDS011;33718;50.910;-1.514;2023-07-29T05:08:48;5.53;;;2.40;;
47958;SDS011;33718;50.910;-1.514;2023-07-29T05:10:50;7.63;;;2.15;;
47958;SDS011;33718;50.910;-1.514;2023-07-29T05:12:52;4.82;;;2.13;;
47958;SDS011;33718;50.910;-1.514;2023-07-29T05:14:53;5.82;;;2.15;;
47958;SDS011;33718;50.910;-1.514;2023-07-29T05:16:57;6.18;;;2.47;;
47958;SDS011;33718;50.910;-1.514;2023-07-29T05:18:59;4.53;;;2.15;;
47958;SDS011;33718;50.910;-1.514;2023-07-29T05:21:03;11.82;;;2.42;;
47958;SDS011;33718;50.910;-1.514;2023-07-29T05:23:10;6.32;;;2.35;;
47958;SDS011;33718;50.910;-1.514;2023-07-29T05:25:18;4.47;;;2.60;;
47958;SDS011;33718;50.910;-1.514;2023-07-29T05:27:22;4.43;;;2.45;;
47958;SDS011;33718;50.910;-1.514;2023-07-29T05:29:24;7.68;;;2.28;;
47958;SDS011;33718;50.910;-1.514;2023-07-29T05:31:28;5.93;;;2.42;;
47958;SDS011;33718;50.910;-1.514;2023-07-29T05:33:32;5.45;;;1.95;;
47958;SDS011;33718;50.910;-1.514;2023-07-29T05:35:34;6.15;;;2.03;;
47958;SDS011;33718;50.910;-1.514;2023-07-29T05:37:37;5.72;;;2.30;;
47958;SDS011;33718;50.910;-1.514;2023-07-29T05:39:42;10.20;;;2.83;;
47958;SDS011;33718;50.910;-1.514;2023-07-29T05:41:46;10.38;;;2.25;;
47958;SDS011;33718;50.910;-1.514;2023-07-29T05:43:48;5.35;;;2.10;;
47958;SDS011;33718;50.910;-1.514;2023-07-29T05:46:09;6.78;;;2.33;;
47958;SDS011;33718;50.910;-1.514;2023-07-29T05:48:11;5.85;;;2.38;;
47958;SDS011;33718;50.910;-1.514;2023-07-29T05:50:12;7.43;;;2.95;;
47958;SDS011;33718;50.910;-1.514;2023-07-29T05:52:16;7.50;;;3.03;;
47958;SDS011;33718;50.910;-1.514;2023-07-29T05:54:18;8.65;;;3.15;;
47958;SDS011;33718;50.910;-1.514;2023-07-29T05:56:20;12.18;;;2.75;;
47958;SDS011;33718;50.910;-1.514;2023-07-29T05:58:24;6.07;;;2.58;;
47958;SDS011;33718;50.910;-1.514;2023-07-29T06:00:29;3.92;;;2.25;;
47958;SDS011;33718;50.910;-1.514;2023-07-29T06:02:30;3.53;;;1.77;;
47958;SDS011;33718;50.910;-1.514;2023-07-29T06:04:35;7.90;;;2.03;;
47958;SDS011;33718;50.910;-1.514;2023-07-29T06:06:37;4.03;;;2.30;;
47958;SDS011;33718;50.910;-1.514;2023-07-29T06:08:58;1.67;;;1.30;;
47958;SDS011;33718;50.910;-1.514;2023-07-29T06:11:02;2.42;;;1.48;;
47958;SDS011;33718;50.910;-1.514;2023-07-29T06:13:09;2.75;;;1.55;;
47958;SDS011;33718;50.910;-1.514;2023-07-29T06:15:30;1.85;;;1.67;;
47958;SDS011;33718;50.910;-1.514;2023-07-29T06:17:38;2.83;;;1.38;;
47958;SDS011;33718;50.910;-1.514;2023-07-29T06:19:44;5.22;;;1.33;;
47958;SDS011;33718;50.910;-1.514;2023-07-29T06:22:06;4.50;;;2.15;;
47958;SDS011;33718;50.910;-1.514;2023-07-29T06:24:13;2.88;;;1.45;;
47958;SDS011;33718;50.910;-1.514;2023-07-29T06:26:17;2.78;;;0.98;;
47958;SDS011;33718;50.910;-1.514;2023-07-29T06:28:23;1.35;;;1.23;;
47958;SDS011;33718;50.910;-1.514;2023-07-29T06:30:30;1.48;;;1.38;;
47958;SDS011;33718;50.910;-1.514;2023-07-29T06:32:34;1.40;;;1.05;;
47958;SDS011;33718;50.910;-1.514;2023-07-29T06:34:40;2.25;;;1.30;;
47958;SDS011;33718;50.910;-1.514;2023-07-29T06:36:47;4.13;;;1.33;;
47958;SDS011;33718;50.910;-1.514;2023-07-29T06:38:50;3.50;;;1.00;;
47958;SDS011;33718;50.910;-1.514;2023-07-29T06:40:55;4.15;;;1.23;;
47958;SDS011;33718;50.910;-1.514;2023-07-29T06:42:59;1.40;;;1.30;;
47958;SDS011;33718;50.910;-1.514;2023-07-29T06:45:01;4.10;;;1.35;;
47958;SDS011;33718;50.910;-1.514;2023-07-29T06:47:04;2.45;;;1.00;;
47958;SDS011;33718;50.910;-1.514;2023-07-29T06:49:08;4.32;;;1.17;;
47958;SDS011;33718;50.910;-1.514;2023-07-29T06:51:29;2.67;;;1.50;;
47958;SDS011;33718;50.910;-1.514;2023-07-29T06:53:36;4.35;;;1.50;;
47958;SDS011;33718;50.910;-1.514;2023-07-29T06:55:40;1.42;;;0.98;;
47958;SDS011;33718;50.910;-1.514;2023-07-29T06:57:42;1.90;;;0.82;;
47958;SDS011;33718;50.910;-1.514;2023-07-29T06:59:44;3.97;;;0.70;;
47958;SDS011;33718;50.910;-1.514;2023-07-29T07:01:48;1.45;;;0.73;;
47958;SDS011;33718;50.910;-1.514;2023-07-29T07:04:08;2.00;;;1.15;;
47958;SDS011;33718;50.910;-1.514;2023-07-29T07:06:13;2.47;;;0.80;;
47958;SDS011;33718;50.910;-1.514;2023-07-29T07:08:17;2.67;;;0.80;;
47958;SDS011;33718;50.910;-1.514;2023-07-29T07:10:19;3.50;;;1.00;;
47958;SDS011;33718;50.910;-1.514;2023-07-29T07:12:23;4.32;;;0.93;;
47958;SDS011;33718;50.910;-1.514;2023-07-29T07:14:27;3.92;;;1.10;;
47958;SDS011;33718;50.910;-1.514;2023-07-29T07:16:32;2.05;;;1.00;;
47958;SDS011;33718;50.910;-1.514;2023-07-29T07:18:33;2.70;;;0.90;;
47958;SDS011;33718;50.910;-1.514;2023-07-29T07:20:35;5.75;;;1.10;;
47958;SDS011;33718;50.910;-1.514;2023-07-29T07:22:39;6.07;;;1.05;;
47958;SDS011;33718;50.910;-1.514;2023-07-29T07:24:41;5.55;;;1.30;;
47958;SDS011;33718;50.910;-1.514;2023-07-29T07:26:43;2.70;;;0.98;;
47958;SDS011;33718;50.910;-1.514;2023-07-29T07:29:03;5.03;;;1.20;;
47958;SDS011;33718;50.910;-1.514;2023-07-29T07:31:07;5.03;;;1.90;;
47958;SDS011;33718;50.910;-1.514;2023-07-29T07:33:11;2.90;;;1.05;;
47958;SDS011;33718;50.910;-1.514;2023-07-29T07:35:16;4.53;;;0.73;;
47958;SDS011;33718;50.910;-1.514;2023-07-29T07:37:17;4.15;;;0.95;;
47958;SDS011;33718;50.910;-1.514;2023-07-29T07:39:22;4.47;;;0.88;;
47958;SDS011;33718;50.910;-1.514;2023-07-29T07:41:23;2.85;;;0.90;;
47958;SDS011;33718;50.910;-1.514;2023-07-29T07:43:25;3.42;;;0.93;;
47958;SDS011;33718;50.910;-1.514;2023-07-29T07:45:27;4.30;;;1.10;;
47958;SDS011;33718;50.910;-1.514;2023-07-29T07:47:31;2.53;;;1.25;;
47958;SDS011;33718;50.910;-1.514;2023-07-29T07:49:35;8.50;;;1.23;;
47958;SDS011;33718;50.910;-1.514;2023-07-29T07:51:37;5.75;;;1.75;;
47958;SDS011;33718;50.910;-1.514;2023-07-29T07:53:41;5.40;;;1.23;;
47958;SDS011;33718;50.910;-1.514;2023-07-29T07:55:46;3.28;;;1.13;;
47958;SDS011;33718;50.910;-1.514;2023-07-29T07:58:06;3.95;;;1.45;;
47958;SDS011;33718;50.910;-1.514;2023-07-29T08:00:11;2.72;;;1.02;;
47958;SDS011;33718;50.910;-1.514;2023-07-29T08:02:12;4.55;;;1.48;;
47958;SDS011;33718;50.910;-1.514;2023-07-29T08:04:14;3.30;;;0.95;;
47958;SDS011;33718;50.910;-1.514;2023-07-29T08:06:34;5.63;;;1.73;;
47958;SDS011;33718;50.910;-1.514;2023-07-29T08:08:39;2.45;;;0.82;;
47958;SDS011;33718;50.910;-1.514;2023-07-29T08:10:41;4.25;;;1.60;;
47958;SDS011;33718;50.910;-1.514;2023-07-29T08:12:43;4.55;;;1.15;;
47958;SDS011;33718;50.910;-1.514;2023-07-29T08:14:44;3.83;;;1.05;;
47958;SDS011;33718;50.910;-1.514;2023-07-29T08:17:04;5.22;;;1.40;;
47958;SDS011;33718;50.910;-1.514;2023-07-29T08:19:08;5.47;;;1.60;;
47958;SDS011;33718;50.910;-1.514;2023-07-29T08:21:29;6.15;;;1.42;;
47958;SDS011;33718;50.910;-1.514;2023-07-29T08:23:34;4.38;;;1.42;;
47958;SDS011;33718;50.910;-1.514;2023-07-29T08:25:39;5.07;;;1.25;;
47958;SDS011;33718;50.910;-1.514;2023-07-29T08:27:40;6.45;;;1.65;;
47958;SDS011;33718;50.910;-1.514;2023-07-29T08:29:42;3.85;;;1.40;;
47958;SDS011;33718;50.910;-1.514;2023-07-29T08:31:46;8.07;;;1.40;;
47958;SDS011;33718;50.910;-1.514;2023-07-29T08:33:48;7.40;;;1.35;;
47958;SDS011;33718;50.910;-1.514;2023-07-29T08:35:52;5.22;;;1.20;;
47958;SDS011;33718;50.910;-1.514;2023-07-29T08:38:12;6.88;;;1.20;;
47958;SDS011;33718;50.910;-1.514;2023-07-29T08:40:15;6.70;;;1.55;;
47958;SDS011;33718;50.910;-1.514;2023-07-29T08:42:16;5.05;;;1.40;;
47958;SDS011;33718;50.910;-1.514;2023-07-29T08:44:21;6.57;;;1.80;;
47958;SDS011;33718;50.910;-1.514;2023-07-29T08:46:29;4.00;;;1.45;;
47958;SDS011;33718;50.910;-1.514;2023-07-29T08:48:39;3.25;;;1.30;;
47958;SDS011;33718;50.910;-1.514;2023-07-29T08:50:44;2.88;;;1.05;;
47958;SDS011;33718;50.910;-1.514;2023-07-29T08:52:49;7.60;;;1.20;;
47958;SDS011;33718;50.910;-1.514;2023-07-29T08:54:50;5.10;;;2.27;;
47958;SDS011;33718;50.910;-1.514;2023-07-29T08:56:53;2.60;;;1.02;;
47958;SDS011;33718;50.910;-1.514;2023-07-29T08:58:58;4.72;;;1.30;;
47958;SDS011;33718;50.910;-1.514;2023-07-29T09:01:04;5.65;;;1.08;;
47958;SDS011;33718;50.910;-1.514;2023-07-29T09:05:08;4.78;;;1.08;;
47958;SDS011;33718;50.910;-1.514;2023-07-29T09:07:12;7.40;;;1.45;;
47958;SDS011;33718;50.910;-1.514;2023-07-29T09:09:14;5.93;;;1.63;;
47958;SDS011;33718;50.910;-1.514;2023-07-29T09:11:19;7.75;;;1.45;;
47958;SDS011;33718;50.910;-1.514;2023-07-29T09:13:25;4.13;;;1.02;;
47958;SDS011;33718;50.910;-1.514;2023-07-29T09:15:31;7.80;;;1.80;;
47958;SDS011;33718;50.910;-1.514;2023-07-29T09:17:36;7.45;;;1.40;;
47958;SDS011;33718;50.910;-1.514;2023-07-29T09:19:47;5.30;;;1.52;;
47958;SDS011;33718;50.910;-1.514;2023-07-29T09:21:51;5.30;;;1.13;;
47958;SDS011;33718;50.910;-1.514;2023-07-29T09:23:58;4.85;;;1.30;;
47958;SDS011;33718;50.910;-1.514;2023-07-29T09:26:06;8.52;;;1.83;;
47958;SDS011;33718;50.910;-1.514;2023-07-29T09:28:14;5.18;;;1.35;;
47958;SDS011;33718;50.910;-1.514;2023-07-29T09:30:21;3.53;;;1.17;;
47958;SDS011;33718;50.910;-1.514;2023-07-29T09:32:43;6.50;;;2.28;;
47958;SDS011;33718;50.910;-1.514;2023-07-29T09:34:51;5.57;;;1.73;;
47958;SDS011;33718;50.910;-1.514;2023-07-29T09:36:57;6.97;;;1.80;;
47958;SDS011;33718;50.910;-1.514;2023-07-29T09:39:10;11.82;;;2.05;;
47958;SDS011;33718;50.910;-1.514;2023-07-29T09:41:32;7.63;;;2.08;;
47958;SDS011;33718;50.910;-1.514;2023-07-29T09:43:35;6.95;;;2.65;;
47958;SDS011;33718;50.910;-1.514;2023-07-29T09:45:39;8.45;;;2.03;;
47958;SDS011;33718;50.910;-1.514;2023-07-29T09:47:46;7.65;;;2.17;;
47958;SDS011;33718;50.910;-1.514;2023-07-29T09:49:51;9.88;;;2.45;;
47958;SDS011;33718;50.910;-1.514;2023-07-29T09:51:58;5.43;;;1.65;;
47958;SDS011;33718;50.910;-1.514;2023-07-29T09:54:07;7.88;;;1.42;;
47958;SDS011;33718;50.910;-1.514;2023-07-29T09:56:12;10.30;;;1.75;;
47958;SDS011;33718;50.910;-1.514;2023-07-29T09:58:32;7.25;;;1.60;;
47958;SDS011;33718;50.910;-1.514;2023-07-29T10:00:34;5.10;;;1.30;;
47958;SDS011;33718;50.910;-1.514;2023-07-29T10:02:39;5.90;;;1.58;;
47958;SDS011;33718;50.910;-1.514;2023-07-29T10:04:42;6.05;;;1.70;;
47958;SDS011;33718;50.910;-1.514;2023-07-29T10:06:46;7.70;;;1.98;;
47958;SDS011;33718;50.910;-1.514;2023-07-29T10:08:50;4.90;;;1.42;;
47958;SDS011;33718;50.910;-1.514;2023-07-29T10:10:55;4.97;;;1.58;;
47958;SDS011;33718;50.910;-1.514;2023-07-29T10:12:57;7.35;;;1.80;;
47958;SDS011;33718;50.910;-1.514;2023-07-29T10:15:05;4.43;;;1.20;;
47958;SDS011;33718;50.910;-1.514;2023-07-29T10:17:14;7.78;;;1.65;;
47958;SDS011;33718;50.910;-1.514;2023-07-29T10:19:35;7.25;;;2.22;;
47958;SDS011;33718;50.910;-1.514;2023-07-29T10:21:38;5.50;;;1.30;;
47958;SDS011;33718;50.910;-1.514;2023-07-29T10:23:42;3.95;;;1.30;;
47958;SDS011;33718;50.910;-1.514;2023-07-29T10:26:04;3.40;;;1.30;;
47958;SDS011;33718;50.910;-1.514;2023-07-29T10:28:08;5.72;;;1.27;;
47958;SDS011;33718;50.910;-1.514;2023-07-29T10:30:15;6.15;;;1.88;;
47958;SDS011;33718;50.910;-1.514;2023-07-29T10:32:17;6.28;;;1.70;;
47958;SDS011;33718;50.910;-1.514;2023-07-29T10:34:23;5.55;;;1.20;;
47958;SDS011;33718;50.910;-1.514;2023-07-29T10:36:25;4.22;;;1.30;;
47958;SDS011;33718;50.910;-1.514;2023-07-29T10:38:30;6.35;;;1.63;;
47958;SDS011;33718;50.910;-1.514;2023-07-29T10:41:00;8.57;;;1.30;;
47958;SDS011;33718;50.910;-1.514;2023-07-29T10:43:11;4.18;;;1.10;;
47958;SDS011;33718;50.910;-1.514;2023-07-29T10:45:19;5.50;;;1.95;;
47958;SDS011;33718;50.910;-1.514;2023-07-29T10:47:25;4.95;;;1.83;;
47958;SDS011;33718;50.910;-1.514;2023-07-29T10:49:27;4.60;;;1.38;;
47958;SDS011;33718;50.910;-1.514;2023-07-29T10:51:36;7.32;;;1.05;;
47958;SDS011;33718;50.910;-1.514;2023-07-29T10:53:38;6.55;;;1.55;;
47958;SDS011;33718;50.910;-1.514;2023-07-29T10:55:43;6.72;;;1.60;;
47958;SDS011;33718;50.910;-1.514;2023-07-29T10:57:48;5.47;;;1.35;;
47958;SDS011;33718;50.910;-1.514;2023-07-29T10:59:55;8.43;;;1.60;;
47958;SDS011;33718;50.910;-1.514;2023-07-29T11:02:00;6.38;;;2.42;;
47958;SDS011;33718;50.910;-1.514;2023-07-29T11:04:21;9.23;;;2.10;;
47958;SDS011;33718;50.910;-1.514;2023-07-29T11:06:28;5.88;;;1.50;;
47958;SDS011;33718;50.910;-1.514;2023-07-29T11:08:30;9.18;;;1.80;;
47958;SDS011;33718;50.910;-1.514;2023-07-29T11:10:42;7.03;;;1.40;;
47958;SDS011;33718;50.910;-1.514;2023-07-29T11:13:02;4.93;;;1.52;;
47958;SDS011;33718;50.910;-1.514;2023-07-29T11:17:14;7.20;;;1.85;;
47958;SDS011;33718;50.910;-1.514;2023-07-29T11:19:18;11.55;;;1.92;;
47958;SDS011;33718;50.910;-1.514;2023-07-29T11:21:20;5.65;;;1.55;;
47958;SDS011;33718;50.910;-1.514;2023-07-29T11:23:32;14.77;;;1.67;;
47958;SDS011;33718;50.910;-1.514;2023-07-29T11:25:37;7.72;;;2.03;;
47958;SDS011;33718;50.910;-1.514;2023-07-29T11:27:39;7.10;;;2.38;;
47958;SDS011;33718;50.910;-1.514;2023-07-29T11:29:44;7.43;;;1.90;;
47958;SDS011;33718;50.910;-1.514;2023-07-29T11:31:48;6.43;;;1.85;;
47958;SDS011;33718;50.910;-1.514;2023-07-29T11:33:50;9.82;;;1.95;;
47958;SDS011;33718;50.910;-1.514;2023-07-29T11:36:19;9.32;;;1.98;;
47958;SDS011;33718;50.910;-1.514;2023-07-29T11:38:31;3.30;;;1.42;;
47958;SDS011;33718;50.910;-1.514;2023-07-29T11:40:41;3.60;;;1.27;;
47958;SDS011;33718;50.910;-1.514;2023-07-29T11:42:42;3.00;;;0.70;;
47958;SDS011;33718;50.910;-1.514;2023-07-29T11:44:47;1.35;;;0.40;;
47958;SDS011;33718;50.910;-1.514;2023-07-29T11:47:07;1.55;;;0.43;;
47958;SDS011;33718;50.910;-1.514;2023-07-29T11:49:09;3.28;;;0.73;;
47958;SDS011;33718;50.910;-1.514;2023-07-29T11:51:13;4.60;;;1.02;;
47958;SDS011;33718;50.910;-1.514;2023-07-29T11:53:15;2.60;;;0.63;;
47958;SDS011;33718;50.910;-1.514;2023-07-29T11:55:20;3.25;;;0.77;;
47958;SDS011;33718;50.910;-1.514;2023-07-29T11:57:25;2.97;;;0.68;;
47958;SDS011;33718;50.910;-1.514;2023-07-29T11:59:29;8.52;;;0.90;;
47958;SDS011;33718;50.910;-1.514;2023-07-29T12:01:36;4.05;;;1.23;;
47958;SDS011;33718;50.910;-1.514;2023-07-29T12:03:43;4.35;;;1.38;;
47958;SDS011;33718;50.910;-1.514;2023-07-29T12:05:45;3.10;;;0.93;;
47958;SDS011;33718;50.910;-1.514;2023-07-29T12:07:46;3.78;;;0.80;;
47958;SDS011;33718;50.910;-1.514;2023-07-29T12:09:51;3.35;;;0.77;;
47958;SDS011;33718;50.910;-1.514;2023-07-29T12:11:53;4.32;;;1.10;;
47958;SDS011;33718;50.910;-1.514;2023-07-29T12:13:59;3.63;;;1.05;;
47958;SDS011;33718;50.910;-1.514;2023-07-29T12:16:01;4.70;;;1.03;;
47958;SDS011;33718;50.910;-1.514;2023-07-29T12:18:05;6.68;;;1.08;;
47958;SDS011;33718;50.910;-1.514;2023-07-29T12:20:10;5.30;;;1.15;;
47958;SDS011;33718;50.910;-1.514;2023-07-29T12:22:33;4.00;;;1.25;;
47958;SDS011;33718;50.910;-1.514;2023-07-29T12:24:44;5.35;;;1.00;;
47958;SDS011;33718;50.910;-1.514;2023-07-29T12:26:56;3.47;;;1.35;;
47958;SDS011;33718;50.910;-1.514;2023-07-29T12:29:12;5.25;;;1.17;;
47958;SDS011;33718;50.910;-1.514;2023-07-29T12:31:31;7.93;;;1.48;;
47958;SDS011;33718;50.910;-1.514;2023-07-29T12:33:55;4.38;;;1.60;;
47958;SDS011;33718;50.910;-1.514;2023-07-29T12:36:04;7.78;;;1.42;;
47958;SDS011;33718;50.910;-1.514;2023-07-29T12:38:20;5.13;;;1.67;;
47958;SDS011;33718;50.910;-1.514;2023-07-29T12:40:28;4.80;;;1.17;;
47958;SDS011;33718;50.910;-1.514;2023-07-29T12:42:32;10.90;;;2.28;;
47958;SDS011;33718;50.910;-1.514;2023-07-29T12:44:37;6.55;;;1.33;;